Terminal Aerodrome Forecast
Issued by NWS

Home | Current Version | Previous Version | Text Only | Print | Product List | Glossary On
Versions: 1 2 3 4 5 6 7 8 9 10 11 12 13
000
FTUS42 KMLB 241731
TAFISM
TAF
KISM 241731Z 2418/2518 05012KT P6SM VCSH SCT040 BKN120
      TEMPO 2418/2420 VRB10G25KT 3SM TS BKN040CB BKN070
     FM242000 05015G22KT P6SM VCTS SCT045CB SCT070 BKN250=

USA.gov is the U.S. government's official web portal to all federal, state and local government web resources and services.